createdAt,value
2022-07-25T00:02:03.535Z,15.27
2022-07-25T00:04:31.409Z,15.57
2022-07-25T00:06:59.590Z,14.80
2022-07-25T00:09:27.359Z,15.05
2022-07-25T00:11:55.087Z,15.68
2022-07-25T00:14:22.827Z,15.38
2022-07-25T00:16:52.121Z,15.75
2022-07-25T00:19:19.944Z,15.43
2022-07-25T00:21:48.774Z,16.13
2022-07-25T00:24:16.496Z,15.40
2022-07-25T00:26:44.294Z,15.48
2022-07-25T00:29:12.001Z,16.02
2022-07-25T00:31:39.727Z,15.63
2022-07-25T00:34:09.366Z,16.35
2022-07-25T00:36:37.624Z,16.45
2022-07-25T00:39:05.696Z,15.52
2022-07-25T00:41:33.451Z,15.75
2022-07-25T00:44:01.174Z,16.30
2022-07-25T00:46:28.921Z,15.85
2022-07-25T00:48:56.718Z,16.50
2022-07-25T00:51:26.560Z,15.95
2022-07-25T00:53:54.303Z,15.57
2022-07-25T00:56:22.065Z,16.33
2022-07-25T00:58:49.788Z,15.95
2022-07-25T01:01:17.628Z,16.13
2022-07-25T01:03:45.447Z,16.38
2022-07-25T01:06:13.425Z,16.13
2022-07-25T01:08:43.046Z,15.93
2022-07-25T01:11:11.915Z,16.55
2022-07-25T01:13:39.774Z,16.05
2022-07-25T01:16:08.086Z,16.85
2022-07-25T01:18:35.825Z,16.88
2022-07-25T01:21:05.715Z,16.55
2022-07-25T01:23:33.492Z,16.33
2022-07-25T01:26:01.213Z,15.90
2022-07-25T01:28:29.159Z,16.75
2022-07-25T01:30:56.963Z,16.98
2022-07-25T01:33:24.697Z,16.73
2022-07-25T01:35:53.130Z,15.65
2022-07-25T01:38:22.179Z,16.08
2022-07-25T01:40:49.928Z,16.20
2022-07-25T01:43:17.685Z,16.20
2022-07-25T01:45:45.504Z,15.82
2022-07-25T01:48:13.283Z,15.85
2022-07-25T01:50:41.048Z,15.13
2022-07-25T01:53:08.754Z,16.10
2022-07-25T01:55:37.846Z,15.50
2022-07-25T01:58:06.782Z,16.10
2022-07-25T02:00:35.647Z,16.55
2022-07-25T02:03:20.587Z,15.98
2022-07-25T02:05:48.493Z,16.35
2022-07-25T02:08:16.215Z,16.38
2022-07-25T02:10:46.385Z,17.40
2022-07-25T02:13:14.288Z,16.90
2022-07-25T02:15:41.984Z,17.13
2022-07-25T02:18:09.738Z,17.33
2022-07-25T02:20:37.505Z,16.92
2022-07-25T02:23:05.957Z,15.20
2022-07-25T02:25:34.316Z,15.95
2022-07-25T02:28:03.725Z,15.95
2022-07-25T02:30:31.591Z,16.33
2022-07-25T02:33:00.119Z,16.38
2022-07-25T02:35:28.161Z,16.23
2022-07-25T02:37:55.942Z,16.17
2022-07-25T02:40:23.719Z,18.00
2022-07-25T02:42:51.421Z,16.70
2022-07-25T02:45:20.514Z,17.40
2022-07-25T02:47:48.257Z,17.55
2022-07-25T02:50:16.070Z,17.65
2022-07-25T02:52:43.784Z,16.55
2022-07-25T02:55:12.444Z,17.63
2022-07-25T02:57:40.246Z,17.42
2022-07-25T03:00:09.677Z,16.77
2022-07-25T03:02:38.965Z,16.48
2022-07-25T03:05:08.325Z,17.75
2022-07-25T03:07:36.149Z,16.67
2022-07-25T03:10:10.822Z,18.70
2022-07-25T03:12:39.551Z,17.20
2022-07-25T03:15:08.434Z,18.08
2022-07-25T03:17:36.402Z,16.95
2022-07-25T03:20:06.945Z,17.17
2022-07-25T03:22:35.078Z,17.10
2022-07-25T03:25:03.152Z,17.38
2022-07-25T03:27:30.918Z,17.73
2022-07-25T03:29:58.666Z,18.25
2022-07-25T03:32:26.407Z,16.67
2022-07-25T03:34:54.167Z,18.02
2022-07-25T03:37:23.244Z,17.95
2022-07-25T03:39:50.955Z,18.75
2022-07-25T03:42:22.358Z,17.40
2022-07-25T03:44:52.951Z,18.10
2022-07-25T03:47:21.027Z,18.65
2022-07-25T03:49:48.757Z,19.55
2022-07-25T03:52:16.446Z,17.77
2022-07-25T03:54:45.546Z,18.35
2022-07-25T03:57:13.382Z,18.48
2022-07-25T03:59:41.089Z,18.00
2022-07-25T04:02:08.842Z,19.15
2022-07-25T04:04:36.654Z,18.65
2022-07-25T04:07:04.482Z,18.95
2022-07-25T04:09:33.415Z,17.73
2022-07-25T04:12:02.938Z,19.23
2022-07-25T04:14:30.653Z,17.55
2022-07-25T04:16:58.496Z,17.95
2022-07-25T04:19:28.847Z,18.10
2022-07-25T04:21:56.986Z,17.98
2022-07-25T04:24:24.832Z,18.13
2022-07-25T04:26:52.570Z,17.95
2022-07-25T04:29:21.683Z,19.70
2022-07-25T04:31:49.499Z,17.85
2022-07-25T04:34:17.381Z,19.02
2022-07-25T04:36:45.139Z,19.25
2022-07-25T04:39:13.174Z,18.67
2022-07-25T04:41:40.941Z,18.98
2022-07-25T04:44:09.384Z,17.80
2022-07-25T04:46:38.766Z,18.73
2022-07-25T04:49:06.553Z,18.50
2022-07-25T04:51:34.412Z,18.70
2022-07-25T04:54:02.345Z,17.27
2022-07-25T04:56:30.157Z,17.55
2022-07-25T04:59:03.156Z,17.23
2022-07-25T05:01:34.040Z,17.42
2022-07-25T05:04:03.446Z,16.60
2022-07-25T05:06:31.387Z,16.75
2022-07-25T05:08:59.073Z,16.08
2022-07-25T05:11:26.816Z,17.15
2022-07-25T05:13:54.546Z,17.42
2022-07-25T05:16:22.325Z,17.08
2022-07-25T05:18:50.228Z,16.92
2022-07-25T05:21:19.448Z,16.48
2022-07-25T05:23:47.201Z,16.33
2022-07-25T05:26:15.022Z,17.80
2022-07-25T05:28:42.718Z,17.15
2022-07-25T05:31:10.560Z,17.75
2022-07-25T05:33:38.308Z,18.05
2022-07-25T05:36:06.525Z,17.73
2022-07-25T05:38:35.742Z,17.35
2022-07-25T05:41:03.567Z,18.52
2022-07-25T05:43:31.329Z,17.42
2022-07-25T05:46:01.973Z,16.65
2022-07-25T05:48:29.841Z,16.02
2022-07-25T05:50:59.185Z,16.00
2022-07-25T05:53:26.996Z,15.10
2022-07-25T05:55:56.163Z,15.80
2022-07-25T05:58:29.430Z,15.60
2022-07-25T06:00:58.069Z,15.85
2022-07-25T06:03:26.006Z,16.10
2022-07-25T06:05:53.800Z,15.10
2022-07-25T06:08:22.545Z,15.13
2022-07-25T06:10:50.324Z,14.88
2022-07-25T06:13:20.227Z,14.82
2022-07-25T06:15:48.653Z,14.77
2022-07-25T06:18:16.571Z,14.13
2022-07-25T06:20:44.341Z,14.02
2022-07-25T06:23:12.306Z,14.05
2022-07-25T06:25:40.092Z,13.68
2022-07-25T06:28:07.946Z,15.02
2022-07-25T06:30:39.796Z,13.82
2022-07-25T06:33:07.529Z,13.18
2022-07-25T06:35:35.275Z,13.50
2022-07-25T06:38:03.285Z,14.80
2022-07-25T06:40:31.055Z,13.93
2022-07-25T06:42:59.733Z,13.48
2022-07-25T06:45:27.546Z,13.48
2022-07-25T06:47:56.612Z,13.98
2022-07-25T06:50:24.420Z,14.13
2022-07-25T06:52:54.396Z,12.80
2022-07-25T06:55:22.184Z,12.27
2022-07-25T06:57:49.883Z,14.05
2022-07-25T07:00:18.182Z,13.32
2022-07-25T07:02:53.557Z,13.63
2022-07-25T07:07:50.717Z,13.73
2022-07-25T07:10:19.333Z,13.35
2022-07-25T07:12:47.351Z,13.38
2022-07-25T07:15:15.601Z,13.13
2022-07-25T07:17:46.132Z,13.48
2022-07-25T07:20:13.916Z,13.48
2022-07-25T07:22:47.499Z,13.18
2022-07-25T07:25:15.773Z,13.63
2022-07-25T07:27:44.279Z,13.52
2022-07-25T07:30:14.722Z,14.05
2022-07-25T07:32:42.839Z,12.98
2022-07-25T07:35:11.286Z,13.43
2022-07-25T07:37:43.496Z,13.98
2022-07-25T07:40:16.942Z,12.70
2022-07-25T07:42:47.254Z,13.23
2022-07-25T07:45:16.771Z,13.02
2022-07-25T07:47:46.831Z,12.73
2022-07-25T07:50:16.220Z,12.02
2022-07-25T07:52:44.745Z,12.77
2022-07-25T07:55:31.824Z,12.65
2022-07-25T07:58:00.590Z,12.45
2022-07-25T08:00:30.969Z,13.38
2022-07-25T08:03:00.475Z,12.88
2022-07-25T08:05:30.993Z,13.02
2022-07-25T08:07:59.532Z,12.20
2022-07-25T08:10:30.407Z,11.65
2022-07-25T08:12:58.895Z,12.57
2022-07-25T08:15:27.144Z,12.43
2022-07-25T08:17:54.932Z,12.23
2022-07-25T08:20:39.490Z,11.70
2022-07-25T08:23:08.454Z,11.43
2022-07-25T08:25:38.147Z,11.35
2022-07-25T08:28:07.337Z,12.00
2022-07-25T08:30:36.048Z,11.63
2022-07-25T08:33:06.577Z,11.55
2022-07-25T08:35:35.872Z,11.85
2022-07-25T08:38:04.871Z,11.13
2022-07-25T08:40:34.401Z,10.57
2022-07-25T08:43:03.625Z,10.77
2022-07-25T08:45:31.615Z,11.57
2022-07-25T08:47:59.356Z,11.20
2022-07-25T08:50:29.842Z,11.20
2022-07-25T08:53:29.917Z,11.60
2022-07-25T08:55:46.683Z,11.10
2022-07-25T08:58:17.502Z,12.30
2022-07-25T09:00:46.049Z,11.43
2022-07-25T09:03:14.228Z,12.05
2022-07-25T09:05:42.479Z,11.45
2022-07-25T09:08:11.804Z,10.63
2022-07-25T09:10:42.358Z,11.85
2022-07-25T09:13:14.163Z,10.73
2022-07-25T09:15:46.772Z,11.20
2022-07-25T09:18:17.018Z,10.68
2022-07-25T09:20:49.213Z,10.68
2022-07-25T09:23:30.151Z,10.98
2022-07-25T09:26:03.545Z,10.63
2022-07-25T09:28:31.489Z,10.68
2022-07-25T09:31:02.070Z,10.10
2022-07-25T09:33:30.643Z,9.98
2022-07-25T09:35:58.412Z,9.35
2022-07-25T09:38:26.289Z,9.25
2022-07-25T09:40:59.783Z,9.30
2022-07-25T09:43:37.482Z,9.40
2022-07-25T09:46:07.748Z,8.07
2022-07-25T09:48:36.146Z,8.20
2022-07-25T09:51:04.651Z,8.85
2022-07-25T09:53:32.640Z,9.10
2022-07-25T09:56:00.975Z,8.38
2022-07-25T09:58:29.993Z,7.68
2022-07-25T10:01:04.308Z,8.30
2022-07-25T10:03:51.693Z,8.53
2022-07-25T10:06:23.214Z,8.32
2022-07-25T10:08:52.038Z,9.30
2022-07-25T10:11:21.269Z,8.68
2022-07-25T10:13:49.601Z,8.40
2022-07-25T10:16:19.388Z,8.07
2022-07-25T10:18:53.364Z,8.73
2022-07-25T10:21:26.764Z,7.90
2022-07-25T10:24:04.170Z,7.63
2022-07-25T10:26:33.416Z,7.88
2022-07-25T10:29:02.115Z,8.27
2022-07-25T10:31:37.042Z,7.72
2022-07-25T10:34:08.313Z,7.72
2022-07-25T10:36:44.802Z,7.90
2022-07-25T10:39:15.259Z,7.95
2022-07-25T10:41:45.279Z,8.13
2022-07-25T10:44:14.744Z,7.68
2022-07-25T10:46:44.562Z,7.63
2022-07-25T10:49:23.673Z,7.60
2022-07-25T10:51:58.758Z,7.17
2022-07-25T10:54:27.037Z,7.13
2022-07-25T10:56:57.471Z,6.82
2022-07-25T10:59:30.963Z,7.10
2022-07-25T11:01:59.205Z,6.57
2022-07-25T11:04:28.805Z,6.40
2022-07-25T11:06:56.584Z,6.13
2022-07-25T11:09:27.758Z,6.15
2022-07-25T11:11:57.810Z,6.18
2022-07-25T11:14:31.218Z,5.93
2022-07-25T11:16:59.477Z,5.90
2022-07-25T11:19:30.080Z,5.75
2022-07-25T11:21:59.751Z,5.45
2022-07-25T11:24:35.898Z,5.45
2022-07-25T11:27:09.760Z,5.47
2022-07-25T11:29:40.695Z,5.65
2022-07-25T11:32:10.539Z,5.70
2022-07-25T11:34:42.643Z,5.32
2022-07-25T11:37:12.525Z,5.70
2022-07-25T11:39:43.992Z,5.55
2022-07-25T11:42:13.493Z,5.53
2022-07-25T11:44:47.615Z,5.57
2022-07-25T11:47:27.706Z,5.18
2022-07-25T11:49:59.029Z,5.90
2022-07-25T11:52:31.069Z,5.10
2022-07-25T11:55:00.584Z,5.18
2022-07-25T11:57:30.694Z,4.93
2022-07-25T12:00:00.284Z,5.20
2022-07-25T12:02:31.112Z,4.93
2022-07-25T12:05:02.048Z,5.25
2022-07-25T12:07:38.228Z,5.38
2022-07-25T12:10:07.333Z,5.53
2022-07-25T12:12:50.160Z,5.45
2022-07-25T12:15:20.103Z,5.35
2022-07-25T12:17:48.621Z,5.30
2022-07-25T12:20:19.489Z,5.22
2022-07-25T12:22:47.556Z,5.90
2022-07-25T12:25:15.978Z,5.35
2022-07-25T12:27:44.439Z,5.50
2022-07-25T12:30:13.869Z,6.10
2022-07-25T12:32:42.820Z,5.30
2022-07-25T12:35:13.309Z,5.75
2022-07-25T12:37:43.647Z,5.65
2022-07-25T12:40:12.778Z,6.43
2022-07-25T12:42:40.509Z,15.38
2022-07-25T12:45:09.353Z,6.03
2022-07-25T12:47:37.555Z,6.05
2022-07-25T12:50:06.979Z,6.13
2022-07-25T12:52:35.107Z,5.93
2022-07-25T12:55:04.578Z,6.20
2022-07-25T12:57:32.586Z,6.28
2022-07-25T13:00:00.253Z,5.80
2022-07-25T13:02:28.042Z,6.00
2022-07-25T13:04:55.803Z,5.65
2022-07-25T13:07:23.600Z,6.07
2022-07-25T13:09:51.356Z,6.30
2022-07-25T13:12:20.646Z,6.18
2022-07-25T13:14:48.975Z,6.47
2022-07-25T13:17:16.811Z,6.10
2022-07-25T13:19:44.648Z,5.82
2022-07-25T13:22:12.693Z,6.60
2022-07-25T13:24:40.445Z,6.15
2022-07-25T13:27:08.572Z,6.38
2022-07-25T13:29:37.719Z,5.97
2022-07-25T13:32:06.461Z,6.78
2022-07-25T13:34:34.264Z,6.18
2022-07-25T13:37:01.973Z,6.60
2022-07-25T13:39:29.710Z,6.28
2022-07-25T13:41:57.569Z,6.50
2022-07-25T13:44:25.301Z,6.85
2022-07-25T13:46:54.534Z,6.43
2022-07-25T13:49:22.423Z,6.65
2022-07-25T13:51:50.224Z,6.00
2022-07-25T13:54:17.978Z,6.80
2022-07-25T13:56:45.848Z,5.55
2022-07-25T13:59:20.400Z,5.88
2022-07-25T14:01:49.007Z,5.63
2022-07-25T14:04:18.407Z,5.70
2022-07-25T14:06:46.326Z,5.90
2022-07-25T14:09:14.043Z,5.60
2022-07-25T14:11:41.838Z,5.50
2022-07-25T14:14:09.524Z,5.68
2022-07-25T14:16:37.235Z,6.15
2022-07-25T14:19:05.496Z,5.18
2022-07-25T14:21:34.846Z,5.20
2022-07-25T14:24:02.587Z,5.07
2022-07-25T14:26:31.045Z,5.43
2022-07-25T14:28:58.892Z,5.28
2022-07-25T14:31:27.141Z,5.32
2022-07-25T14:33:55.086Z,5.30
2022-07-25T14:36:22.847Z,5.55
2022-07-25T14:38:52.083Z,5.22
2022-07-25T14:41:20.356Z,5.70
2022-07-25T14:43:48.197Z,5.28
2022-07-25T14:46:16.236Z,5.50
2022-07-25T14:48:44.156Z,5.40
2022-07-25T14:51:11.975Z,4.68
2022-07-25T14:53:39.845Z,5.28
2022-07-25T14:56:09.261Z,5.13
2022-07-25T14:58:38.178Z,5.40
2022-07-25T15:01:07.011Z,5.30
2022-07-25T15:03:34.843Z,5.03
2022-07-25T15:06:03.086Z,5.38
2022-07-25T15:08:30.897Z,5.07
2022-07-25T15:10:58.636Z,5.07
2022-07-25T15:13:31.493Z,4.82
2022-07-25T15:16:00.027Z,4.75
2022-07-25T15:18:27.837Z,4.13
2022-07-25T15:20:55.632Z,4.55
2022-07-25T15:23:24.986Z,4.63
2022-07-25T15:26:02.221Z,4.35
2022-07-25T15:28:33.467Z,4.40
2022-07-25T15:31:01.688Z,4.68
2022-07-25T15:33:29.552Z,4.80
2022-07-25T15:35:57.984Z,4.35
2022-07-25T15:38:25.836Z,5.32
2022-07-25T15:40:53.561Z,4.57
2022-07-25T15:43:21.308Z,5.00
2022-07-25T15:45:52.680Z,8.63
2022-07-25T15:48:20.409Z,5.38
2022-07-25T15:50:51.590Z,4.55
2022-07-25T15:53:21.077Z,4.55
2022-07-25T15:55:49.281Z,4.88
2022-07-25T15:58:17.223Z,4.65
2022-07-25T16:00:45.143Z,3.70
2022-07-25T16:03:14.830Z,4.32
2022-07-25T16:05:44.595Z,3.90
2022-07-25T16:08:12.406Z,4.68
2022-07-25T16:10:40.123Z,3.85
2022-07-25T16:13:07.863Z,4.30
2022-07-25T16:15:35.976Z,4.07
2022-07-25T16:18:03.760Z,4.32
2022-07-25T16:20:33.847Z,4.45
2022-07-25T16:23:02.070Z,4.10
2022-07-25T16:25:30.783Z,3.92
2022-07-25T16:28:00.124Z,3.97
2022-07-25T16:30:28.218Z,4.40
2022-07-25T16:32:56.185Z,4.18
2022-07-25T16:35:24.199Z,4.03
2022-07-25T16:37:53.372Z,4.00
2022-07-25T16:40:21.394Z,3.80
2022-07-25T16:42:50.488Z,4.07
2022-07-25T16:45:18.197Z,4.13
2022-07-25T16:47:45.925Z,4.00
2022-07-25T16:50:13.656Z,4.03
2022-07-25T16:52:41.388Z,4.70
2022-07-25T16:55:10.971Z,4.88
2022-07-25T16:57:39.260Z,4.72
2022-07-25T17:00:09.663Z,4.68
2022-07-25T17:02:37.538Z,5.00
2022-07-25T17:05:06.182Z,5.25
2022-07-25T17:07:34.093Z,5.28
2022-07-25T17:10:01.852Z,5.07
2022-07-25T17:12:33.637Z,5.20
2022-07-25T17:15:01.496Z,5.40
2022-07-25T17:17:29.320Z,5.32
2022-07-25T17:20:00.100Z,5.75
2022-07-25T17:22:28.095Z,6.20
2022-07-25T17:24:55.888Z,6.97
2022-07-25T17:27:24.067Z,5.90
2022-07-25T17:29:53.228Z,7.00
2022-07-25T17:32:23.057Z,6.68
2022-07-25T17:34:54.383Z,6.68
2022-07-25T17:37:22.801Z,6.85
2022-07-25T17:39:50.840Z,6.78
2022-07-25T17:42:22.268Z,6.60
2022-07-25T17:44:50.215Z,6.93
2022-07-25T17:47:20.008Z,6.63
2022-07-25T17:49:47.748Z,7.10
2022-07-25T17:52:15.978Z,7.15
2022-07-25T17:54:43.788Z,8.60
2022-07-25T17:57:11.934Z,7.07
2022-07-25T17:59:39.910Z,7.70
2022-07-25T18:02:07.737Z,6.78
2022-07-25T18:04:37.978Z,6.95
2022-07-25T18:07:05.814Z,7.22
2022-07-25T18:09:33.754Z,6.70
2022-07-25T18:12:01.739Z,6.93
2022-07-25T18:14:30.140Z,6.68
2022-07-25T18:16:58.482Z,6.47
2022-07-25T18:19:26.456Z,6.88
2022-07-25T18:21:55.595Z,7.03
2022-07-25T18:24:28.837Z,7.18
2022-07-25T18:26:57.110Z,7.32
2022-07-25T18:29:24.984Z,6.85
2022-07-25T18:31:52.765Z,7.40
2022-07-25T18:34:20.499Z,6.63
2022-07-25T18:36:48.825Z,7.55
2022-07-25T18:39:18.021Z,7.55
2022-07-25T18:41:45.777Z,7.07
2022-07-25T18:44:13.592Z,7.97
2022-07-25T18:46:43.467Z,7.03
2022-07-25T18:49:12.004Z,7.43
2022-07-25T18:51:40.212Z,8.15
2022-07-25T18:54:08.696Z,8.13
2022-07-25T18:56:38.331Z,7.97
2022-07-25T18:59:07.005Z,7.50
2022-07-25T19:01:35.760Z,7.07
2022-07-25T19:04:03.682Z,6.95
2022-07-25T19:06:31.595Z,7.28
2022-07-25T19:08:59.316Z,7.57
2022-07-25T19:11:27.580Z,7.47
2022-07-25T19:13:57.524Z,10.57
2022-07-25T19:16:25.481Z,7.88
2022-07-25T19:18:53.617Z,11.48
2022-07-25T19:21:21.457Z,7.82
2022-07-25T19:23:51.121Z,8.38
2022-07-25T19:26:19.821Z,8.13
2022-07-25T19:28:48.039Z,7.82
2022-07-25T19:31:17.207Z,8.30
2022-07-25T19:33:46.121Z,8.20
2022-07-25T19:36:14.645Z,7.68
2022-07-25T19:38:42.612Z,10.32
2022-07-25T19:41:11.012Z,8.13
2022-07-25T19:43:38.783Z,9.90
2022-07-25T19:46:06.747Z,8.23
2022-07-25T19:48:36.114Z,8.00
2022-07-25T19:51:03.920Z,8.20
2022-07-25T19:53:34.277Z,8.30
2022-07-25T19:56:02.326Z,7.82
2022-07-25T19:58:33.073Z,8.20
2022-07-25T20:01:03.472Z,8.30
2022-07-25T20:03:31.513Z,8.38
2022-07-25T20:06:04.621Z,8.23
2022-07-25T20:08:35.529Z,8.27
2022-07-25T20:11:03.436Z,8.07
2022-07-25T20:13:31.246Z,9.00
2022-07-25T20:15:59.851Z,8.35
2022-07-25T20:18:27.628Z,8.20
2022-07-25T20:20:55.454Z,8.68
2022-07-25T20:23:26.623Z,8.98
2022-07-25T20:25:56.894Z,8.18
2022-07-25T20:28:27.806Z,8.10
2022-07-25T20:30:56.296Z,8.27
2022-07-25T20:33:27.040Z,8.13
2022-07-25T20:35:55.706Z,8.25
2022-07-25T20:38:28.298Z,9.20
2022-07-25T20:40:56.491Z,9.55
2022-07-25T20:43:24.979Z,8.63
2022-07-25T20:45:53.011Z,8.68
2022-07-25T20:48:20.758Z,7.95
2022-07-25T20:50:49.682Z,8.70
2022-07-25T20:53:17.483Z,9.25
2022-07-25T20:55:46.633Z,8.93
2022-07-25T20:58:14.362Z,8.85
2022-07-25T21:00:42.407Z,8.98
2022-07-25T21:03:10.313Z,9.50
2022-07-25T21:05:39.372Z,8.68
2022-07-25T21:08:07.952Z,9.75
2022-07-25T21:10:35.698Z,9.38
2022-07-25T21:13:05.052Z,9.48
2022-07-25T21:15:32.890Z,9.57
2022-07-25T21:18:00.745Z,9.57
2022-07-25T21:20:28.599Z,8.90
2022-07-25T21:22:56.377Z,9.15
2022-07-25T21:25:24.086Z,9.68
2022-07-25T21:27:51.891Z,9.52
2022-07-25T21:30:20.988Z,9.25
2022-07-25T21:32:48.937Z,8.80
2022-07-25T21:35:18.080Z,9.00
2022-07-25T21:37:45.892Z,8.18
2022-07-25T21:40:13.800Z,7.97
2022-07-25T21:42:42.425Z,8.15
2022-07-25T21:45:10.902Z,8.57
2022-07-25T21:47:40.026Z,7.75
2022-07-25T21:50:26.395Z,8.50
2022-07-25T21:52:54.832Z,9.60
2022-07-25T21:55:22.901Z,8.88
2022-07-25T21:57:51.892Z,8.60
2022-07-25T22:00:21.166Z,8.68
2022-07-25T22:02:50.518Z,8.57
2022-07-25T22:05:19.353Z,8.63
2022-07-25T22:07:48.272Z,9.40
2022-07-25T22:10:17.612Z,9.50
2022-07-25T22:12:45.365Z,9.20
2022-07-25T22:15:14.047Z,9.35
2022-07-25T22:17:49.356Z,9.68
2022-07-25T22:20:20.367Z,9.95
2022-07-25T22:22:48.501Z,10.27
2022-07-25T22:25:16.699Z,9.32
2022-07-25T22:27:44.572Z,10.43
2022-07-25T22:30:18.522Z,10.45
2022-07-25T22:32:47.610Z,10.05
2022-07-25T22:35:15.772Z,9.43
2022-07-25T22:37:45.161Z,9.05
2022-07-25T22:40:14.759Z,10.05
2022-07-25T22:42:42.541Z,10.35
2022-07-25T22:45:11.568Z,10.43
2022-07-25T22:47:39.563Z,9.40
2022-07-25T22:50:08.915Z,9.57
2022-07-25T22:52:36.659Z,8.52
2022-07-25T22:55:06.584Z,9.45
2022-07-25T22:57:37.276Z,8.77
